sensor_id;sensor_type;location;lat;lon;timestamp;pressure;altitude;pressure_sealevel;temperature;humidity
31005;BME280;17676;52.254;4.490;2023-05-10T00:00:11;100727.13;;;12.55;76.94
31005;BME280;17676;52.254;4.490;2023-05-10T00:02:37;100741.31;;;12.57;77.09
31005;BME280;17676;52.254;4.490;2023-05-10T00:05:04;100735.28;;;12.55;77.53
31005;BME280;17676;52.254;4.490;2023-05-10T00:07:31;100742.22;;;12.51;78.04
31005;BME280;17676;52.254;4.490;2023-05-10T00:09:57;100737.09;;;12.61;77.95
31005;BME280;17676;52.254;4.490;2023-05-10T00:12:23;100731.28;;;12.58;78.33
31005;BME280;17676;52.254;4.490;2023-05-10T00:14:48;100733.81;;;12.53;78.65
31005;BME280;17676;52.254;4.490;2023-05-10T00:17:14;100723.59;;;12.55;79.00
31005;BME280;17676;52.254;4.490;2023-05-10T00:19:39;100725.94;;;12.51;79.61
31005;BME280;17676;52.254;4.490;2023-05-10T00:22:05;100729.53;;;12.45;80.57
31005;BME280;17676;52.254;4.490;2023-05-10T00:24:31;100737.44;;;12.47;81.24
31005;BME280;17676;52.254;4.490;2023-05-10T00:26:57;100736.44;;;12.41;81.79
31005;BME280;17676;52.254;4.490;2023-05-10T00:29:23;100726.66;;;12.40;82.08
31005;BME280;17676;52.254;4.490;2023-05-10T00:31:49;100728.75;;;12.38;82.76
31005;BME280;17676;52.254;4.490;2023-05-10T00:34:14;100723.59;;;12.30;83.89
31005;BME280;17676;52.254;4.490;2023-05-10T00:36:40;100729.44;;;12.34;84.42
31005;BME280;17676;52.254;4.490;2023-05-10T00:39:06;100726.78;;;12.27;85.27
31005;BME280;17676;52.254;4.490;2023-05-10T00:41:31;100737.78;;;12.32;85.83
31005;BME280;17676;52.254;4.490;2023-05-10T00:43:58;100732.19;;;12.27;86.00
31005;BME280;17676;52.254;4.490;2023-05-10T00:46:23;100747.44;;;12.28;87.19
31005;BME280;17676;52.254;4.490;2023-05-10T00:48:50;100738.72;;;12.20;88.44
31005;BME280;17676;52.254;4.490;2023-05-10T00:51:15;100725.84;;;12.15;89.14
31005;BME280;17676;52.254;4.490;2023-05-10T00:53:41;100725.22;;;12.13;90.72
31005;BME280;17676;52.254;4.490;2023-05-10T00:56:06;100729.25;;;12.04;92.38
31005;BME280;17676;52.254;4.490;2023-05-10T00:58:32;100727.13;;;12.06;92.65
31005;BME280;17676;52.254;4.490;2023-05-10T01:00:58;100727.59;;;12.03;92.52
31005;BME280;17676;52.254;4.490;2023-05-10T01:03:24;100735.47;;;12.11;92.42
31005;BME280;17676;52.254;4.490;2023-05-10T01:05:50;100736.13;;;12.07;93.18
31005;BME280;17676;52.254;4.490;2023-05-10T01:08:16;100735.59;;;11.92;95.65
31005;BME280;17676;52.254;4.490;2023-05-10T01:10:43;100729.38;;;11.91;96.31
31005;BME280;17676;52.254;4.490;2023-05-10T01:13:09;100742.59;;;12.06;94.54
31005;BME280;17676;52.254;4.490;2023-05-10T01:15:35;100746.31;;;12.11;94.38
31005;BME280;17676;52.254;4.490;2023-05-10T01:18:02;100764.13;;;12.25;92.44
31005;BME280;17676;52.254;4.490;2023-05-10T01:20:33;100752.34;;;12.38;90.23
31005;BME280;17676;52.254;4.490;2023-05-10T01:34:34;100776.09;;;12.42;90.46
31005;BME280;17676;52.254;4.490;2023-05-10T01:37:16;100788.66;;;12.43;90.27
31005;BME280;17676;52.254;4.490;2023-05-10T01:42:39;100781.66;;;12.54;87.74
31005;BME280;17676;52.254;4.490;2023-05-10T01:45:21;100793.03;;;12.62;86.96
31005;BME280;17676;52.254;4.490;2023-05-10T01:47:58;100789.03;;;12.71;85.80
31005;BME280;17676;52.254;4.490;2023-05-10T01:50:30;100793.81;;;12.69;85.71
31005;BME280;17676;52.254;4.490;2023-05-10T01:52:59;100770.22;;;12.70;84.69
31005;BME280;17676;52.254;4.490;2023-05-10T01:55:29;100788.25;;;12.82;83.87
31005;BME280;17676;52.254;4.490;2023-05-10T01:58:02;100789.47;;;12.86;83.53
31005;BME280;17676;52.254;4.490;2023-05-10T02:00:29;100789.47;;;12.86;83.15
31005;BME280;17676;52.254;4.490;2023-05-10T02:02:57;100789.81;;;12.96;82.07
31005;BME280;17676;52.254;4.490;2023-05-10T02:05:24;100795.88;;;13.16;80.62
31005;BME280;17676;52.254;4.490;2023-05-10T02:07:50;100783.19;;;13.10;80.57
31005;BME280;17676;52.254;4.490;2023-05-10T02:10:17;100788.75;;;13.15;80.54
31005;BME280;17676;52.254;4.490;2023-05-10T02:12:47;100791.66;;;13.20;80.71
31005;BME280;17676;52.254;4.490;2023-05-10T02:15:19;100801.91;;;13.18;81.96
31005;BME280;17676;52.254;4.490;2023-05-10T02:17:46;100790.06;;;13.13;82.25
31005;BME280;17676;52.254;4.490;2023-05-10T02:20:13;100789.25;;;13.12;82.50
31005;BME280;17676;52.254;4.490;2023-05-10T02:22:43;100793.47;;;13.08;83.46
31005;BME280;17676;52.254;4.490;2023-05-10T02:25:11;100801.75;;;13.13;83.84
31005;BME280;17676;52.254;4.490;2023-05-10T02:27:40;100798.13;;;13.19;83.41
31005;BME280;17676;52.254;4.490;2023-05-10T02:30:07;100802.06;;;13.23;84.00
31005;BME280;17676;52.254;4.490;2023-05-10T02:32:33;100801.25;;;13.23;84.69
31005;BME280;17676;52.254;4.490;2023-05-10T02:35:01;100798.88;;;13.26;84.09
31005;BME280;17676;52.254;4.490;2023-05-10T02:37:28;100804.09;;;13.28;84.77
31005;BME280;17676;52.254;4.490;2023-05-10T02:39:55;100808.34;;;13.24;86.12
31005;BME280;17676;52.254;4.490;2023-05-10T02:42:26;100807.97;;;13.20;86.70
31005;BME280;17676;52.254;4.490;2023-05-10T02:44:54;100807.97;;;13.20;86.72
31005;BME280;17676;52.254;4.490;2023-05-10T02:47:21;100820.34;;;13.34;86.43
31005;BME280;17676;52.254;4.490;2023-05-10T02:49:47;100817.91;;;13.26;87.46
31005;BME280;17676;52.254;4.490;2023-05-10T02:52:16;100823.97;;;13.28;88.09
31005;BME280;17676;52.254;4.490;2023-05-10T02:54:45;100821.25;;;13.28;89.07
31005;BME280;17676;52.254;4.490;2023-05-10T02:57:16;100830.63;;;13.32;89.69
31005;BME280;17676;52.254;4.490;2023-05-10T02:59:45;100818.50;;;13.10;92.42
31005;BME280;17676;52.254;4.490;2023-05-10T03:02:14;100831.88;;;13.12;93.57
31005;BME280;17676;52.254;4.490;2023-05-10T03:04:39;100835.66;;;13.11;94.10
31005;BME280;17676;52.254;4.490;2023-05-10T03:07:05;100834.38;;;13.13;93.46
31005;BME280;17676;52.254;4.490;2023-05-10T03:09:32;100843.13;;;13.15;93.36
31005;BME280;17676;52.254;4.490;2023-05-10T03:12:06;100838.97;;;13.13;94.19
31005;BME280;17676;52.254;4.490;2023-05-10T03:15:00;100834.03;;;13.03;95.86
31005;BME280;17676;52.254;4.490;2023-05-10T03:17:45;100837.53;;;13.10;95.14
31005;BME280;17676;52.254;4.490;2023-05-10T03:20:20;100838.69;;;12.96;98.26
31005;BME280;17676;52.254;4.490;2023-05-10T03:22:53;100829.63;;;12.84;99.17
31005;BME280;17676;52.254;4.490;2023-05-10T03:25:21;100826.28;;;12.82;100.00
31005;BME280;17676;52.254;4.490;2023-05-10T03:27:48;100833.00;;;12.80;100.00
31005;BME280;17676;52.254;4.490;2023-05-10T03:30:15;100850.44;;;12.90;99.33
31005;BME280;17676;52.254;4.490;2023-05-10T03:32:41;100856.38;;;12.81;100.00
31005;BME280;17676;52.254;4.490;2023-05-10T03:35:10;100858.06;;;12.82;100.00
31005;BME280;17676;52.254;4.490;2023-05-10T03:37:37;100960.44;;;12.81;100.00
31005;BME280;17676;52.254;4.490;2023-05-10T03:40:03;100952.13;;;12.76;100.00
31005;BME280;17676;52.254;4.490;2023-05-10T03:42:29;100956.72;;;12.76;100.00
31005;BME280;17676;52.254;4.490;2023-05-10T03:44:55;100953.34;;;12.80;100.00
31005;BME280;17676;52.254;4.490;2023-05-10T03:47:20;100956.50;;;12.77;100.00
31005;BME280;17676;52.254;4.490;2023-05-10T03:49:46;100971.69;;;12.85;100.00
31005;BME280;17676;52.254;4.490;2023-05-10T03:52:11;100962.78;;;12.78;100.00
31005;BME280;17676;52.254;4.490;2023-05-10T03:54:37;100955.53;;;12.65;100.00
31005;BME280;17676;52.254;4.490;2023-05-10T03:57:03;100971.41;;;12.68;100.00
31005;BME280;17676;52.254;4.490;2023-05-10T03:59:29;100972.19;;;12.75;100.00
31005;BME280;17676;52.254;4.490;2023-05-10T04:01:55;100974.63;;;12.83;100.00
31005;BME280;17676;52.254;4.490;2023-05-10T04:04:21;100973.75;;;12.89;100.00
31005;BME280;17676;52.254;4.490;2023-05-10T04:06:47;100969.00;;;12.78;100.00
31005;BME280;17676;52.254;4.490;2023-05-10T04:09:12;100978.75;;;12.92;100.00
31005;BME280;17676;52.254;4.490;2023-05-10T04:11:38;100973.38;;;12.86;100.00
31005;BME280;17676;52.254;4.490;2023-05-10T04:14:04;100970.88;;;12.84;100.00
31005;BME280;17676;52.254;4.490;2023-05-10T04:16:30;100978.75;;;12.92;100.00
31005;BME280;17676;52.254;4.490;2023-05-10T04:18:55;100971.03;;;12.89;100.00
31005;BME280;17676;52.254;4.490;2023-05-10T04:21:22;100981.28;;;12.87;100.00
31005;BME280;17676;52.254;4.490;2023-05-10T04:23:48;100980.59;;;12.98;100.00
31005;BME280;17676;52.254;4.490;2023-05-10T04:26:13;100978.28;;;12.95;100.00
31005;BME280;17676;52.254;4.490;2023-05-10T04:28:39;100973.75;;;12.89;100.00
31005;BME280;17676;52.254;4.490;2023-05-10T04:31:06;100973.28;;;12.99;100.00
31005;BME280;17676;52.254;4.490;2023-05-10T04:33:32;100978.34;;;12.89;100.00
31005;BME280;17676;52.254;4.490;2023-05-10T04:35:58;100985.06;;;12.86;100.00
31005;BME280;17676;52.254;4.490;2023-05-10T04:38:24;100973.84;;;12.76;100.00
31005;BME280;17676;52.254;4.490;2023-05-10T04:40:50;100985.16;;;12.73;100.00
31005;BME280;17676;52.254;4.490;2023-05-10T04:43:16;100975.34;;;12.72;100.00
31005;BME280;17676;52.254;4.490;2023-05-10T04:45:41;100983.81;;;12.82;100.00
31005;BME280;17676;52.254;4.490;2023-05-10T04:48:07;100990.75;;;12.78;100.00
31005;BME280;17676;52.254;4.490;2023-05-10T04:50:33;100989.22;;;12.58;100.00
31005;BME280;17676;52.254;4.490;2023-05-10T04:52:58;100991.31;;;12.56;100.00
31005;BME280;17676;52.254;4.490;2023-05-10T04:55:24;100985.22;;;12.60;100.00
31005;BME280;17676;52.254;4.490;2023-05-10T04:57:50;101000.69;;;12.60;100.00
31005;BME280;17676;52.254;4.490;2023-05-10T05:00:16;101010.22;;;12.75;100.00
31005;BME280;17676;52.254;4.490;2023-05-10T05:02:45;101001.06;;;12.70;100.00
31005;BME280;17676;52.254;4.490;2023-05-10T05:05:11;101002.09;;;12.69;100.00
31005;BME280;17676;52.254;4.490;2023-05-10T05:07:37;100998.56;;;12.68;100.00
31005;BME280;17676;52.254;4.490;2023-05-10T05:10:05;101016.25;;;12.77;100.00
31005;BME280;17676;52.254;4.490;2023-05-10T05:12:31;100993.22;;;12.49;100.00
31005;BME280;17676;52.254;4.490;2023-05-10T05:14:57;101015.69;;;12.62;100.00
31005;BME280;17676;52.254;4.490;2023-05-10T05:17:22;101019.22;;;12.69;100.00
31005;BME280;17676;52.254;4.490;2023-05-10T05:19:48;101029.44;;;12.74;100.00
31005;BME280;17676;52.254;4.490;2023-05-10T05:22:13;101017.69;;;12.80;97.73
31005;BME280;17676;52.254;4.490;2023-05-10T05:24:39;101033.28;;;12.97;94.14
31005;BME280;17676;52.254;4.490;2023-05-10T05:27:05;101028.03;;;12.96;93.28
31005;BME280;17676;52.254;4.490;2023-05-10T05:29:31;101033.88;;;12.99;93.09
31005;BME280;17676;52.254;4.490;2023-05-10T05:31:57;101031.06;;;12.81;95.19
31005;BME280;17676;52.254;4.490;2023-05-10T05:34:22;101032.28;;;12.85;93.77
31005;BME280;17676;52.254;4.490;2023-05-10T05:36:52;101034.31;;;12.96;91.42
31005;BME280;17676;52.254;4.490;2023-05-10T05:39:18;101036.81;;;12.91;91.90
31005;BME280;17676;52.254;4.490;2023-05-10T05:41:43;101039.47;;;12.73;93.76
31005;BME280;17676;52.254;4.490;2023-05-10T05:44:09;101030.84;;;12.83;90.86
31005;BME280;17676;52.254;4.490;2023-05-10T05:46:35;101044.31;;;13.02;87.47
31005;BME280;17676;52.254;4.490;2023-05-10T05:49:01;101039.31;;;12.99;87.37
31005;BME280;17676;52.254;4.490;2023-05-10T05:51:27;101054.66;;;13.18;85.75
31005;BME280;17676;52.254;4.490;2023-05-10T05:53:52;101045.69;;;13.18;85.54
31005;BME280;17676;52.254;4.490;2023-05-10T05:56:18;101044.22;;;13.22;85.05
31005;BME280;17676;52.254;4.490;2023-05-10T05:58:50;101053.81;;;13.24;85.36
31005;BME280;17676;52.254;4.490;2023-05-10T06:01:15;101052.34;;;13.46;83.17
31005;BME280;17676;52.254;4.490;2023-05-10T06:03:41;101059.13;;;13.37;85.22
31005;BME280;17676;52.254;4.490;2023-05-10T06:06:07;101057.28;;;13.31;86.81
31005;BME280;17676;52.254;4.490;2023-05-10T06:08:32;101053.56;;;13.50;84.45
31005;BME280;17676;52.254;4.490;2023-05-10T06:10:59;101064.56;;;13.62;83.77
31005;BME280;17676;52.254;4.490;2023-05-10T06:13:25;101054.41;;;13.51;86.31
31005;BME280;17676;52.254;4.490;2023-05-10T06:15:53;101061.63;;;13.39;89.46
31005;BME280;17676;52.254;4.490;2023-05-10T06:18:19;101070.75;;;13.51;88.88
31005;BME280;17676;52.254;4.490;2023-05-10T06:20:45;101061.91;;;13.55;89.11
31005;BME280;17676;52.254;4.490;2023-05-10T06:23:11;101058.34;;;13.30;93.00
31005;BME280;17676;52.254;4.490;2023-05-10T06:25:36;101066.97;;;13.52;91.10
31005;BME280;17676;52.254;4.490;2023-05-10T06:28:02;101064.03;;;13.53;92.40
31005;BME280;17676;52.254;4.490;2023-05-10T06:30:28;101058.78;;;13.52;92.61
31005;BME280;17676;52.254;4.490;2023-05-10T06:32:54;101060.81;;;13.63;91.67
31005;BME280;17676;52.254;4.490;2023-05-10T06:35:20;101066.47;;;13.61;93.75
31005;BME280;17676;52.254;4.490;2023-05-10T06:37:45;101073.06;;;13.72;94.18
31005;BME280;17676;52.254;4.490;2023-05-10T06:40:12;101065.91;;;13.77;94.45
31005;BME280;17676;52.254;4.490;2023-05-10T06:42:37;101068.56;;;13.84;96.22
31005;BME280;17676;52.254;4.490;2023-05-10T06:45:03;101071.88;;;13.86;98.18
31005;BME280;17676;52.254;4.490;2023-05-10T06:47:29;101056.03;;;14.01;96.79
31005;BME280;17676;52.254;4.490;2023-05-10T06:49:54;101062.22;;;14.08;97.31
31005;BME280;17676;52.254;4.490;2023-05-10T06:52:21;101075.56;;;14.16;100.00
31005;BME280;17676;52.254;4.490;2023-05-10T06:54:46;101054.13;;;14.19;100.00
31005;BME280;17676;52.254;4.490;2023-05-10T06:57:12;101056.75;;;14.32;100.00
31005;BME280;17676;52.254;4.490;2023-05-10T06:59:37;101065.81;;;14.44;100.00
31005;BME280;17676;52.254;4.490;2023-05-10T07:02:03;101058.66;;;14.32;100.00
31005;BME280;17676;52.254;4.490;2023-05-10T07:04:30;101058.03;;;14.30;100.00
31005;BME280;17676;52.254;4.490;2023-05-10T07:06:56;101066.81;;;14.32;100.00
31005;BME280;17676;52.254;4.490;2023-05-10T07:09:22;101062.81;;;14.34;100.00
31005;BME280;17676;52.254;4.490;2023-05-10T07:11:49;101059.84;;;14.36;100.00
31005;BME280;17676;52.254;4.490;2023-05-10T07:14:15;101075.50;;;14.58;100.00
31005;BME280;17676;52.254;4.490;2023-05-10T07:16:41;101070.94;;;14.52;100.00
31005;BME280;17676;52.254;4.490;2023-05-10T07:19:06;101068.47;;;14.80;100.00
31005;BME280;17676;52.254;4.490;2023-05-10T07:21:32;101066.50;;;14.88;100.00
31005;BME280;17676;52.254;4.490;2023-05-10T07:23:58;101062.28;;;15.03;100.00
31005;BME280;17676;52.254;4.490;2023-05-10T07:26:25;101069.25;;;15.29;100.00
31005;BME280;17676;52.254;4.490;2023-05-10T07:28:50;101073.38;;;15.20;100.00
31005;BME280;17676;52.254;4.490;2023-05-10T07:31:16;101047.59;;;15.34;100.00
31005;BME280;17676;52.254;4.490;2023-05-10T07:33:42;101053.09;;;15.57;100.00
31005;BME280;17676;52.254;4.490;2023-05-10T07:36:07;101046.81;;;15.56;100.00
31005;BME280;17676;52.254;4.490;2023-05-10T07:38:33;101050.81;;;15.54;100.00
31005;BME280;17676;52.254;4.490;2023-05-10T07:40:59;101029.72;;;15.49;100.00
31005;BME280;17676;52.254;4.490;2023-05-10T07:43:26;101043.13;;;15.51;100.00
31005;BME280;17676;52.254;4.490;2023-05-10T07:45:51;101040.88;;;15.48;100.00
31005;BME280;17676;52.254;4.490;2023-05-10T07:48:17;101047.41;;;15.58;100.00
31005;BME280;17676;52.254;4.490;2023-05-10T07:50:43;101036.50;;;15.47;100.00
31005;BME280;17676;52.254;4.490;2023-05-10T07:53:14;101018.63;;;15.33;100.00
31005;BME280;17676;52.254;4.490;2023-05-10T07:55:39;101018.03;;;15.31;100.00
31005;BME280;17676;52.254;4.490;2023-05-10T07:58:05;101021.44;;;15.15;100.00
31005;BME280;17676;52.254;4.490;2023-05-10T08:00:30;101012.81;;;15.29;100.00
31005;BME280;17676;52.254;4.490;2023-05-10T08:02:56;101015.34;;;15.54;100.00
31005;BME280;17676;52.254;4.490;2023-05-10T08:05:22;101014.31;;;15.66;100.00
31005;BME280;17676;52.254;4.490;2023-05-10T08:07:47;101013.97;;;15.63;100.00
31005;BME280;17676;52.254;4.490;2023-05-10T08:10:13;101014.41;;;15.94;100.00
31005;BME280;17676;52.254;4.490;2023-05-10T08:12:39;101008.59;;;16.02;100.00
31005;BME280;17676;52.254;4.490;2023-05-10T08:15:08;101007.84;;;16.18;100.00
31005;BME280;17676;52.254;4.490;2023-05-10T08:17:34;100998.56;;;16.31;100.00
31005;BME280;17676;52.254;4.490;2023-05-10T08:19:59;101006.03;;;16.47;100.00
31005;BME280;17676;52.254;4.490;2023-05-10T08:22:25;101003.78;;;16.72;100.00
31005;BME280;17676;52.254;4.490;2023-05-10T08:24:51;100994.84;;;16.76;100.00
31005;BME280;17676;52.254;4.490;2023-05-10T08:27:17;101000.66;;;16.80;100.00
31005;BME280;17676;52.254;4.490;2023-05-10T08:29:45;100993.81;;;16.66;100.00
31005;BME280;17676;52.254;4.490;2023-05-10T08:32:13;101004.16;;;16.92;100.00
31005;BME280;17676;52.254;4.490;2023-05-10T08:34:39;101013.63;;;17.01;100.00
31005;BME280;17676;52.254;4.490;2023-05-10T08:37:09;101008.63;;;16.81;100.00
31005;BME280;17676;52.254;4.490;2023-05-10T08:39:38;101008.63;;;16.81;100.00
31005;BME280;17676;52.254;4.490;2023-05-10T08:42:04;101003.41;;;16.80;100.00
31005;BME280;17676;52.254;4.490;2023-05-10T08:44:35;101008.88;;;16.80;100.00
31005;BME280;17676;52.254;4.490;2023-05-10T08:47:05;101008.00;;;16.63;100.00
31005;BME280;17676;52.254;4.490;2023-05-10T08:49:32;101007.94;;;16.74;100.00
31005;BME280;17676;52.254;4.490;2023-05-10T08:52:02;101018.94;;;16.63;100.00
31005;BME280;17676;52.254;4.490;2023-05-10T08:54:28;101019.97;;;16.62;100.00
31005;BME280;17676;52.254;4.490;2023-05-10T08:56:55;101027.94;;;16.63;100.00
31005;BME280;17676;52.254;4.490;2023-05-10T08:59:22;101025.22;;;16.40;100.00
31005;BME280;17676;52.254;4.490;2023-05-10T09:01:49;101027.38;;;16.61;100.00
31005;BME280;17676;52.254;4.490;2023-05-10T09:04:15;101028.94;;;16.46;100.00
31005;BME280;17676;52.254;4.490;2023-05-10T09:06:41;101047.00;;;16.35;100.00
31005;BME280;17676;52.254;4.490;2023-05-10T09:09:07;101039.56;;;16.08;100.00
31005;BME280;17676;52.254;4.490;2023-05-10T09:11:33;101050.75;;;15.95;100.00
31005;BME280;17676;52.254;4.490;2023-05-10T09:13:59;101056.88;;;16.02;100.00
31005;BME280;17676;52.254;4.490;2023-05-10T09:16:25;101050.75;;;15.95;100.00
31005;BME280;17676;52.254;4.490;2023-05-10T09:18:51;101059.50;;;15.97;100.00
31005;BME280;17676;52.254;4.490;2023-05-10T09:21:16;101054.31;;;15.84;100.00
31005;BME280;17676;52.254;4.490;2023-05-10T09:23:45;101056.44;;;15.70;100.00
31005;BME280;17676;52.254;4.490;2023-05-10T09:26:12;101051.94;;;15.76;100.00
31005;BME280;17676;52.254;4.490;2023-05-10T09:28:57;101053.13;;;15.80;100.00
31005;BME280;17676;52.254;4.490;2023-05-10T09:31:23;101060.94;;;15.65;100.00
31005;BME280;17676;52.254;4.490;2023-05-10T09:33:51;101057.13;;;15.66;100.00
31005;BME280;17676;52.254;4.490;2023-05-10T09:36:17;101061.53;;;15.67;100.00
31005;BME280;17676;52.254;4.490;2023-05-10T09:38:47;101064.38;;;15.72;100.00
31005;BME280;17676;52.254;4.490;2023-05-10T09:41:25;101069.22;;;15.70;100.00
31005;BME280;17676;52.254;4.490;2023-05-10T09:43:56;101081.69;;;15.66;100.00
31005;BME280;17676;52.254;4.490;2023-05-10T09:46:22;101066.50;;;15.70;100.00
31005;BME280;17676;52.254;4.490;2023-05-10T09:48:51;101073.75;;;15.64;100.00
31005;BME280;17676;52.254;4.490;2023-05-10T09:51:24;101069.13;;;15.65;100.00
31005;BME280;17676;52.254;4.490;2023-05-10T09:54:13;101080.25;;;15.63;100.00
31005;BME280;17676;52.254;4.490;2023-05-10T09:56:39;101078.25;;;15.59;100.00
31005;BME280;17676;52.254;4.490;2023-05-10T09:59:07;101088.78;;;15.55;100.00
31005;BME280;17676;52.254;4.490;2023-05-10T10:01:36;101082.75;;;15.65;100.00
31005;BME280;17676;52.254;4.490;2023-05-10T10:04:06;101078.16;;;15.65;100.00
31005;BME280;17676;52.254;4.490;2023-05-10T10:06:39;101079.56;;;15.56;100.00
31005;BME280;17676;52.254;4.490;2023-05-10T10:09:09;101090.72;;;15.66;100.00
31005;BME280;17676;52.254;4.490;2023-05-10T10:11:36;101076.38;;;15.82;100.00
31005;BME280;17676;52.254;4.490;2023-05-10T10:14:02;101096.09;;;15.96;100.00
31005;BME280;17676;52.254;4.490;2023-05-10T10:16:31;101078.84;;;15.95;100.00
31005;BME280;17676;52.254;4.490;2023-05-10T10:18:57;101088.25;;;15.99;100.00
31005;BME280;17676;52.254;4.490;2023-05-10T10:21:23;101089.31;;;15.98;100.00
31005;BME280;17676;52.254;4.490;2023-05-10T10:23:49;101097.84;;;16.02;100.00
31005;BME280;17676;52.254;4.490;2023-05-10T10:26:19;101092.28;;;15.97;100.00
31005;BME280;17676;52.254;4.490;2023-05-10T10:34:33;101093.31;;;15.61;100.00
31005;BME280;17676;52.254;4.490;2023-05-10T10:37:04;101102.31;;;15.50;100.00
31005;BME280;17676;52.254;4.490;2023-05-10T10:39:31;101083.19;;;15.39;100.00
31005;BME280;17676;52.254;4.490;2023-05-10T10:41:58;101103.72;;;15.41;100.00
31005;BME280;17676;52.254;4.490;2023-05-10T10:47:21;101099.00;;;15.19;97.71
31005;BME280;17676;52.254;4.490;2023-05-10T10:49:52;101093.66;;;15.12;91.54
31005;BME280;17676;52.254;4.490;2023-05-10T10:52:30;101095.75;;;15.10;89.41
31005;BME280;17676;52.254;4.490;2023-05-10T10:55:10;101107.81;;;15.03;86.51
31005;BME280;17676;52.254;4.490;2023-05-10T11:00:32;101115.16;;;14.54;87.58
31005;BME280;17676;52.254;4.490;2023-05-10T11:03:06;101106.63;;;14.08;85.50
31005;BME280;17676;52.254;4.490;2023-05-10T11:05:39;101123.63;;;14.04;91.51
31005;BME280;17676;52.254;4.490;2023-05-10T11:08:28;101119.91;;;14.16;92.47
31005;BME280;17676;52.254;4.490;2023-05-10T11:13:46;101135.19;;;14.42;92.92
31005;BME280;17676;52.254;4.490;2023-05-10T11:16:19;101123.00;;;14.44;91.16
31005;BME280;17676;52.254;4.490;2023-05-10T11:19:12;101133.78;;;14.57;90.36
31005;BME280;17676;52.254;4.490;2023-05-10T11:21:48;101143.13;;;14.43;91.50
31005;BME280;17676;52.254;4.490;2023-05-10T11:24:20;101136.91;;;14.36;92.56
31005;BME280;17676;52.254;4.490;2023-05-10T11:26:50;101141.09;;;14.39;93.36
31005;BME280;17676;52.254;4.490;2023-05-10T11:29:17;101147.97;;;14.59;91.93
31005;BME280;17676;52.254;4.490;2023-05-10T11:31:46;101142.69;;;14.04;89.14
31005;BME280;17676;52.254;4.490;2023-05-10T11:34:36;101147.50;;;14.26;88.69
31005;BME280;17676;52.254;4.490;2023-05-10T11:37:01;101149.88;;;14.41;89.13
31005;BME280;17676;52.254;4.490;2023-05-10T11:39:30;101153.00;;;14.20;90.88
31005;BME280;17676;52.254;4.490;2023-05-10T11:41:57;101150.72;;;14.41;91.09
31005;BME280;17676;52.254;4.490;2023-05-10T11:44:28;101142.91;;;14.20;93.14
31005;BME280;17676;52.254;4.490;2023-05-10T11:46:54;101152.38;;;14.42;100.00
31005;BME280;17676;52.254;4.490;2023-05-10T11:49:20;101148.34;;;14.27;100.00
31005;BME280;17676;52.254;4.490;2023-05-10T11:51:48;101148.22;;;14.40;100.00
31005;BME280;17676;52.254;4.490;2023-05-10T11:54:13;101144.06;;;14.37;100.00
31005;BME280;17676;52.254;4.490;2023-05-10T11:56:40;101150.13;;;14.57;100.00
31005;BME280;17676;52.254;4.490;2023-05-10T11:59:06;101152.00;;;14.39;100.00
31005;BME280;17676;52.254;4.490;2023-05-10T12:01:33;101154.13;;;14.55;100.00
31005;BME280;17676;52.254;4.490;2023-05-10T12:04:00;101159.91;;;14.40;100.00
31005;BME280;17676;52.254;4.490;2023-05-10T12:06:27;101158.28;;;14.57;100.00
31005;BME280;17676;52.254;4.490;2023-05-10T12:08:54;101167.44;;;14.63;100.00
31005;BME280;17676;52.254;4.490;2023-05-10T12:11:20;101149.13;;;14.70;100.00
31005;BME280;17676;52.254;4.490;2023-05-10T12:13:50;101155.56;;;14.75;100.00
31005;BME280;17676;52.254;4.490;2023-05-10T12:16:17;101156.63;;;14.74;100.00
31005;BME280;17676;52.254;4.490;2023-05-10T12:18:44;101155.06;;;14.97;100.00
31005;BME280;17676;52.254;4.490;2023-05-10T12:21:11;101160.69;;;15.31;99.30
31005;BME280;17676;52.254;4.490;2023-05-10T12:23:38;101162.47;;;15.26;99.19
31005;BME280;17676;52.254;4.490;2023-05-10T12:26:05;101165.19;;;15.55;96.65
31005;BME280;17676;52.254;4.490;2023-05-10T12:28:32;101158.06;;;15.54;96.72
31005;BME280;17676;52.254;4.490;2023-05-10T12:30:59;101159.28;;;15.58;97.55
31005;BME280;17676;52.254;4.490;2023-05-10T12:33:25;101149.25;;;15.41;99.16
31005;BME280;17676;52.254;4.490;2023-05-10T12:35:52;101153.88;;;14.93;90.51
31005;BME280;17676;52.254;4.490;2023-05-10T12:38:34;101166.09;;;15.20;88.39
31005;BME280;17676;52.254;4.490;2023-05-10T12:41:02;101157.59;;;15.28;85.41
31005;BME280;17676;52.254;4.490;2023-05-10T12:43:29;101153.31;;;15.02;84.48
31005;BME280;17676;52.254;4.490;2023-05-10T12:45:55;101152.03;;;15.05;83.67
31005;BME280;17676;52.254;4.490;2023-05-10T12:48:20;101163.00;;;15.16;81.96
31005;BME280;17676;52.254;4.490;2023-05-10T12:50:46;101162.84;;;15.11;79.99
31005;BME280;17676;52.254;4.490;2023-05-10T12:53:16;101158.97;;;15.19;72.35
31005;BME280;17676;52.254;4.490;2023-05-10T12:55:45;101175.09;;;15.38;67.93
31005;BME280;17676;52.254;4.490;2023-05-10T12:58:10;101162.88;;;15.41;66.48
31005;BME280;17676;52.254;4.490;2023-05-10T13:00:36;101161.47;;;15.50;65.76
31005;BME280;17676;52.254;4.490;2023-05-10T13:03:04;101161.03;;;15.53;63.68
31005;BME280;17676;52.254;4.490;2023-05-10T13:05:32;101166.25;;;15.54;61.92
31005;BME280;17676;52.254;4.490;2023-05-10T13:07:58;101167.22;;;15.60;61.12
31005;BME280;17676;52.254;4.490;2023-05-10T13:10:23;101156.91;;;15.62;68.19
31005;BME280;17676;52.254;4.490;2023-05-10T13:12:50;101175.94;;;15.68;67.32
31005;BME280;17676;52.254;4.490;2023-05-10T13:15:16;101157.19;;;15.72;66.38